createdAt,value
2017-05-24T00:02:12.800Z,18.02
2017-05-24T00:04:40.379Z,17.92
2017-05-24T00:07:07.904Z,17.84
2017-05-24T00:09:35.464Z,18.02
2017-05-24T00:12:02.997Z,17.97
2017-05-24T00:14:30.591Z,17.94
2017-05-24T00:16:58.147Z,17.93
2017-05-24T00:19:25.676Z,17.47
2017-05-24T00:21:53.244Z,17.65
2017-05-24T00:24:20.768Z,17.68
2017-05-24T00:26:48.338Z,17.65
2017-05-24T00:29:15.859Z,17.59
2017-05-24T00:31:43.396Z,17.57
2017-05-24T00:34:10.963Z,17.53
2017-05-24T00:36:38.486Z,17.61
2017-05-24T00:39:06.080Z,17.84
2017-05-24T00:41:33.620Z,17.83
2017-05-24T00:44:01.223Z,17.77
2017-05-24T00:46:28.820Z,17.90
2017-05-24T00:48:56.351Z,17.84
2017-05-24T00:51:23.932Z,17.90
2017-05-24T00:53:51.453Z,17.91
2017-05-24T00:56:19.027Z,17.78
2017-05-24T00:58:46.568Z,17.78
2017-05-24T01:01:14.120Z,17.77
2017-05-24T01:03:41.657Z,17.67
2017-05-24T01:06:09.196Z,17.78
2017-05-24T01:08:36.761Z,17.85
2017-05-24T01:11:04.289Z,17.63
2017-05-24T01:13:31.853Z,17.45
2017-05-24T01:15:59.384Z,17.47
2017-05-24T01:18:26.912Z,17.48
2017-05-24T01:20:54.471Z,17.72
2017-05-24T01:23:21.993Z,17.79
2017-05-24T01:25:49.588Z,17.89
2017-05-24T01:28:17.124Z,17.84
2017-05-24T01:30:44.695Z,17.91
2017-05-24T01:33:12.385Z,17.92
2017-05-24T01:35:39.990Z,17.96
2017-05-24T01:38:07.622Z,17.93
2017-05-24T01:40:35.161Z,17.92
2017-05-24T01:43:02.745Z,17.94
2017-05-24T01:45:30.357Z,17.79
2017-05-24T01:47:57.901Z,17.74
2017-05-24T01:50:25.452Z,17.59
2017-05-24T01:52:53.017Z,17.60
2017-05-24T01:55:20.632Z,17.35
2017-05-24T01:57:48.224Z,17.27
2017-05-24T02:00:15.825Z,17.05
2017-05-24T02:02:43.757Z,16.98
2017-05-24T02:05:11.301Z,17.01
2017-05-24T02:07:38.831Z,16.91
2017-05-24T02:10:06.403Z,16.53
2017-05-24T02:12:33.957Z,16.47
2017-05-24T02:15:01.885Z,16.32
2017-05-24T02:17:29.415Z,16.43
2017-05-24T02:19:56.972Z,16.84
2017-05-24T02:22:24.539Z,17.03
2017-05-24T02:24:52.063Z,16.96
2017-05-24T02:27:19.640Z,16.68
2017-05-24T02:29:47.185Z,16.86
2017-05-24T02:32:14.767Z,16.97
2017-05-24T02:34:42.373Z,17.05
2017-05-24T02:37:09.919Z,17.03
2017-05-24T02:39:37.541Z,16.97
2017-05-24T02:42:05.140Z,16.75
2017-05-24T02:44:32.705Z,16.65
2017-05-24T02:47:00.233Z,16.42
2017-05-24T02:49:27.793Z,16.42
2017-05-24T02:51:55.353Z,16.67
2017-05-24T02:54:22.951Z,16.85
2017-05-24T02:56:50.622Z,16.96
2017-05-24T02:59:18.174Z,16.96
2017-05-24T03:01:45.695Z,16.99
2017-05-24T03:04:13.288Z,16.94
2017-05-24T03:06:40.818Z,16.77
2017-05-24T03:09:08.380Z,16.65
2017-05-24T03:11:35.912Z,16.30
2017-05-24T03:14:03.467Z,16.04
2017-05-24T03:16:31.025Z,16.24
2017-05-24T03:18:58.551Z,16.15
2017-05-24T03:21:26.116Z,16.20
2017-05-24T03:23:53.659Z,16.12
2017-05-24T03:26:21.192Z,16.04
2017-05-24T03:28:48.774Z,15.70
2017-05-24T03:31:16.297Z,15.61
2017-05-24T03:33:43.852Z,15.75
2017-05-24T03:36:11.418Z,16.00
2017-05-24T03:38:38.925Z,15.74
2017-05-24T03:41:06.444Z,16.01
2017-05-24T03:43:34.011Z,15.90
2017-05-24T03:46:01.561Z,16.01
2017-05-24T03:48:29.117Z,16.10
2017-05-24T03:50:56.889Z,16.11
2017-05-24T03:53:24.413Z,16.22
2017-05-24T03:55:51.959Z,16.21
2017-05-24T03:58:19.536Z,16.16
2017-05-24T04:00:47.043Z,16.06
2017-05-24T04:03:14.576Z,16.08
2017-05-24T04:05:42.165Z,16.16
2017-05-24T04:08:09.700Z,15.95
2017-05-24T04:10:37.274Z,15.73
2017-05-24T04:13:04.837Z,15.82
2017-05-24T04:15:32.366Z,15.96
2017-05-24T04:17:59.932Z,16.14
2017-05-24T04:20:27.537Z,16.23
2017-05-24T04:22:55.163Z,16.12
2017-05-24T04:25:22.706Z,15.97
2017-05-24T04:27:50.268Z,15.80
2017-05-24T04:30:17.894Z,15.71
2017-05-24T04:32:45.436Z,15.93
2017-05-24T04:35:13.074Z,15.74
2017-05-24T04:37:40.678Z,15.48
2017-05-24T04:40:08.224Z,15.73
2017-05-24T04:42:35.857Z,15.72
2017-05-24T04:45:03.386Z,15.59
2017-05-24T04:47:30.954Z,15.78
2017-05-24T04:49:58.501Z,15.58
2017-05-24T04:52:26.028Z,15.90
2017-05-24T04:54:53.675Z,15.92
2017-05-24T04:57:21.248Z,16.14
2017-05-24T04:59:48.827Z,16.20
2017-05-24T05:02:16.380Z,16.30
2017-05-24T05:04:44.268Z,16.56
2017-05-24T05:07:11.838Z,16.62
2017-05-24T05:09:39.484Z,16.49
2017-05-24T05:12:07.047Z,16.62
2017-05-24T05:14:34.631Z,16.42
2017-05-24T05:17:02.205Z,15.99
2017-05-24T05:19:29.731Z,16.26
2017-05-24T05:21:57.388Z,16.50
2017-05-24T05:24:24.932Z,16.55
2017-05-24T05:26:52.475Z,16.66
2017-05-24T05:29:20.024Z,16.76
2017-05-24T05:31:47.612Z,16.78
2017-05-24T05:34:15.173Z,16.91
2017-05-24T05:36:44.699Z,16.92
2017-05-24T05:39:12.343Z,16.83
2017-05-24T05:41:39.944Z,16.96
2017-05-24T05:44:07.625Z,16.76
2017-05-24T05:46:35.194Z,16.89
2017-05-24T05:49:02.737Z,16.74
2017-05-24T05:51:30.412Z,16.66
2017-05-24T05:53:58.051Z,16.71
2017-05-24T05:56:29.050Z,16.69
2017-05-24T05:58:56.623Z,16.82
2017-05-24T06:01:25.395Z,16.90
2017-05-24T06:03:54.296Z,16.74
2017-05-24T06:06:21.846Z,16.96
2017-05-24T06:08:49.429Z,16.70
2017-05-24T06:11:17.420Z,16.70
2017-05-24T06:13:44.975Z,16.73
2017-05-24T06:16:12.553Z,16.85
2017-05-24T06:18:40.234Z,17.04
2017-05-24T06:21:07.917Z,17.18
2017-05-24T06:23:35.452Z,17.27
2017-05-24T06:26:03.053Z,17.34
2017-05-24T06:28:30.592Z,17.39
2017-05-24T06:30:58.510Z,17.47
2017-05-24T06:33:26.101Z,17.51
2017-05-24T06:35:53.663Z,17.59
2017-05-24T06:38:21.386Z,17.74
2017-05-24T06:40:48.979Z,17.59
2017-05-24T06:43:16.567Z,17.66
2017-05-24T06:45:44.155Z,17.70
2017-05-24T06:48:11.730Z,17.71
2017-05-24T06:50:39.422Z,17.71
2017-05-24T06:53:07.374Z,17.72
2017-05-24T06:55:35.007Z,17.48
2017-05-24T06:58:02.575Z,17.67
2017-05-24T07:00:30.113Z,17.77
2017-05-24T07:02:57.784Z,17.87
2017-05-24T07:05:25.333Z,17.88
2017-05-24T07:07:52.947Z,17.85
2017-05-24T07:10:20.576Z,17.83
2017-05-24T07:12:48.240Z,17.96
2017-05-24T07:15:15.833Z,17.91
2017-05-24T07:17:43.430Z,18.20
2017-05-24T07:20:11.057Z,17.92
2017-05-24T07:22:38.946Z,17.97
2017-05-24T07:25:06.529Z,17.98
2017-05-24T07:27:34.190Z,18.14
2017-05-24T07:30:01.794Z,18.14
2017-05-24T07:32:29.348Z,18.17
2017-05-24T07:34:56.924Z,18.22
2017-05-24T07:37:24.558Z,18.30
2017-05-24T07:39:52.522Z,18.17
2017-05-24T07:42:20.047Z,18.25
2017-05-24T07:44:47.571Z,18.25
2017-05-24T07:47:15.157Z,18.37
2017-05-24T07:49:42.684Z,18.40
2017-05-24T07:52:10.331Z,18.20
2017-05-24T07:54:37.943Z,18.17
2017-05-24T07:57:05.514Z,18.37
2017-05-24T07:59:33.061Z,18.33
2017-05-24T08:02:00.626Z,18.42
2017-05-24T08:04:28.160Z,18.56
2017-05-24T08:06:56.047Z,18.50
2017-05-24T08:09:23.613Z,18.44
2017-05-24T08:11:51.187Z,18.49
2017-05-24T08:14:18.759Z,18.67
2017-05-24T08:16:46.316Z,18.74
2017-05-24T08:19:13.920Z,18.75
2017-05-24T08:21:41.481Z,18.51
2017-05-24T08:24:09.053Z,18.46
2017-05-24T08:26:36.635Z,18.66
2017-05-24T08:29:04.187Z,18.82
2017-05-24T08:31:31.740Z,18.72
2017-05-24T08:33:59.308Z,18.66
2017-05-24T08:36:26.840Z,18.63
2017-05-24T08:38:54.428Z,18.67
2017-05-24T08:41:21.985Z,18.70
2017-05-24T08:43:49.603Z,19.01
2017-05-24T08:46:17.148Z,19.05
2017-05-24T08:48:44.677Z,19.33
2017-05-24T08:51:12.255Z,19.38
2017-05-24T08:53:39.806Z,19.45
2017-05-24T08:56:07.460Z,19.30
2017-05-24T08:58:35.439Z,19.26
2017-05-24T09:01:03.033Z,19.16
2017-05-24T09:03:30.567Z,19.32
2017-05-24T09:05:58.113Z,19.26
2017-05-24T09:08:25.692Z,19.35
2017-05-24T09:10:53.277Z,19.32
2017-05-24T09:13:20.832Z,19.37
2017-05-24T09:15:48.389Z,19.43
2017-05-24T09:18:15.957Z,19.40
2017-05-24T09:20:43.527Z,19.19
2017-05-24T09:23:11.325Z,19.57
2017-05-24T09:25:38.915Z,19.62
2017-05-24T09:28:06.468Z,19.44
2017-05-24T09:30:34.060Z,19.75
2017-05-24T09:33:01.607Z,19.99
2017-05-24T09:35:29.201Z,20.28
2017-05-24T09:37:56.740Z,20.24
2017-05-24T09:40:24.277Z,20.14
2017-05-24T09:42:51.837Z,20.11
2017-05-24T09:45:19.399Z,20.12
2017-05-24T09:47:46.976Z,19.92
2017-05-24T09:50:14.520Z,19.88
2017-05-24T09:52:42.087Z,20.12
2017-05-24T09:55:09.651Z,20.31
2017-05-24T09:57:37.219Z,20.34
2017-05-24T10:00:04.782Z,20.65
2017-05-24T10:02:32.318Z,20.63
2017-05-24T10:04:59.902Z,20.70
2017-05-24T10:07:27.476Z,20.93
2017-05-24T10:09:55.002Z,21.03
2017-05-24T10:12:22.564Z,20.79
2017-05-24T10:14:50.146Z,20.76
2017-05-24T10:17:17.767Z,20.80
2017-05-24T10:19:45.312Z,20.93
2017-05-24T10:22:12.994Z,21.00
2017-05-24T10:24:40.524Z,20.92
2017-05-24T10:27:08.063Z,20.83
2017-05-24T10:29:35.629Z,20.80
2017-05-24T10:32:03.170Z,21.11
2017-05-24T10:34:30.777Z,20.91
2017-05-24T10:36:58.309Z,21.02
2017-05-24T10:39:25.824Z,21.27
2017-05-24T10:42:12.144Z,21.50
2017-05-24T10:44:39.735Z,21.73
2017-05-24T10:47:07.397Z,21.69
2017-05-24T10:49:34.970Z,21.55
2017-05-24T10:52:02.591Z,21.48
2017-05-24T10:54:30.241Z,21.42
2017-05-24T10:56:57.841Z,21.42
2017-05-24T10:59:25.447Z,21.46
2017-05-24T11:01:52.994Z,21.47
2017-05-24T11:04:20.583Z,21.42
2017-05-24T11:06:48.115Z,21.27
2017-05-24T11:09:15.668Z,21.26
2017-05-24T11:11:43.653Z,21.42
2017-05-24T11:14:11.191Z,21.43
2017-05-24T11:16:38.705Z,21.27
2017-05-24T11:19:06.280Z,21.41
2017-05-24T11:21:33.873Z,21.23
2017-05-24T11:24:01.440Z,21.10
2017-05-24T11:26:28.977Z,21.14
2017-05-24T11:28:56.565Z,21.07
2017-05-24T11:31:24.095Z,21.12
2017-05-24T11:33:51.652Z,21.18
2017-05-24T11:36:19.235Z,21.37
2017-05-24T11:38:46.816Z,21.48
2017-05-24T11:41:14.364Z,21.51
2017-05-24T11:43:41.968Z,21.56
2017-05-24T11:46:09.523Z,21.48
2017-05-24T11:48:37.108Z,21.60
2017-05-24T11:51:04.714Z,21.87
2017-05-24T11:53:32.277Z,22.20
2017-05-24T11:55:59.886Z,22.32
2017-05-24T11:58:27.457Z,22.30
2017-05-24T12:00:55.013Z,22.50
2017-05-24T12:03:22.679Z,22.31
2017-05-24T12:05:50.224Z,22.15
2017-05-24T12:08:17.826Z,22.29
2017-05-24T12:10:45.379Z,22.40
2017-05-24T12:13:13.008Z,22.35
2017-05-24T12:15:40.565Z,22.37
2017-05-24T12:18:08.125Z,22.28
2017-05-24T12:20:35.700Z,22.22
2017-05-24T12:23:03.251Z,22.03
2017-05-24T12:25:31.237Z,21.84
2017-05-24T12:27:58.869Z,21.73
2017-05-24T12:30:26.409Z,21.64
2017-05-24T12:32:54.055Z,21.72
2017-05-24T12:35:21.720Z,21.83
2017-05-24T12:37:49.629Z,22.12
2017-05-24T12:40:17.224Z,22.19
2017-05-24T12:42:44.773Z,22.19
2017-05-24T12:45:12.348Z,22.24
2017-05-24T12:47:39.891Z,22.36
2017-05-24T12:50:07.500Z,22.52
2017-05-24T12:52:35.049Z,22.37
2017-05-24T12:55:02.595Z,22.42
2017-05-24T12:57:30.178Z,22.44
2017-05-24T12:59:57.722Z,22.51
2017-05-24T13:02:25.332Z,22.51
2017-05-24T13:04:52.885Z,22.52
2017-05-24T13:07:20.466Z,22.35
2017-05-24T13:09:48.047Z,22.45
2017-05-24T13:12:15.605Z,22.45
2017-05-24T13:14:43.205Z,22.47
2017-05-24T13:17:10.780Z,22.38
2017-05-24T13:19:38.380Z,22.51
2017-05-24T13:22:05.915Z,22.65
2017-05-24T13:24:33.583Z,22.64
2017-05-24T13:27:01.186Z,22.97
2017-05-24T13:29:28.727Z,23.17
2017-05-24T13:31:56.258Z,23.24
2017-05-24T13:34:23.880Z,23.36
2017-05-24T13:36:51.512Z,23.44
2017-05-24T13:39:19.100Z,23.11
2017-05-24T13:41:46.717Z,23.11
2017-05-24T13:44:14.365Z,23.19
2017-05-24T13:46:41.972Z,23.19
2017-05-24T13:49:09.521Z,23.19
2017-05-24T13:51:37.085Z,23.23
2017-05-24T13:54:04.668Z,23.31
2017-05-24T13:56:32.219Z,23.35
2017-05-24T13:58:59.815Z,23.23
2017-05-24T14:01:27.375Z,23.21
2017-05-24T14:03:54.957Z,23.10
2017-05-24T14:06:22.521Z,22.99
2017-05-24T14:08:50.122Z,22.93
2017-05-24T14:11:17.688Z,23.23
2017-05-24T14:13:45.282Z,23.28
2017-05-24T14:16:12.797Z,23.29
2017-05-24T14:18:40.336Z,23.21
2017-05-24T14:21:07.918Z,22.98
2017-05-24T14:23:35.474Z,22.99
2017-05-24T14:26:03.035Z,23.11
2017-05-24T14:28:30.608Z,22.96
2017-05-24T14:30:58.869Z,22.96
2017-05-24T14:33:26.405Z,23.09
2017-05-24T14:35:53.953Z,23.04
2017-05-24T14:38:21.528Z,22.97
2017-05-24T14:40:49.055Z,23.18
2017-05-24T14:43:16.646Z,23.68
2017-05-24T14:45:44.216Z,24.06
2017-05-24T14:48:11.748Z,23.96
2017-05-24T14:50:39.376Z,24.01
2017-05-24T14:53:06.971Z,24.30
2017-05-24T14:55:34.544Z,24.59
2017-05-24T14:58:02.067Z,23.99
2017-05-24T15:00:29.660Z,24.08
2017-05-24T15:02:57.240Z,23.80
2017-05-24T15:05:24.787Z,23.68
2017-05-24T15:07:52.357Z,23.87
2017-05-24T15:10:19.945Z,24.11
2017-05-24T15:12:47.512Z,23.89
2017-05-24T15:15:15.485Z,23.92
2017-05-24T15:17:43.109Z,24.18
2017-05-24T15:20:10.704Z,24.10
2017-05-24T15:22:38.263Z,24.01
2017-05-24T15:25:05.783Z,23.95
2017-05-24T15:27:33.371Z,24.09
2017-05-24T15:30:00.937Z,24.41
2017-05-24T15:32:28.468Z,24.36
2017-05-24T15:34:56.031Z,24.32
2017-05-24T15:37:23.554Z,24.22
2017-05-24T15:39:51.213Z,23.98
2017-05-24T15:42:20.226Z,23.90
2017-05-24T15:44:47.723Z,23.81
2017-05-24T15:47:15.267Z,23.60
2017-05-24T15:49:42.871Z,23.38
2017-05-24T15:52:10.418Z,23.28
2017-05-24T15:54:37.955Z,23.46
2017-05-24T15:57:05.575Z,23.92
2017-05-24T15:59:33.123Z,23.95
2017-05-24T16:02:00.965Z,24.05
2017-05-24T16:04:28.559Z,24.07
2017-05-24T16:06:56.104Z,24.17
2017-05-24T16:09:23.763Z,24.33
2017-05-24T16:11:51.325Z,24.45
2017-05-24T16:14:19.092Z,24.62
2017-05-24T16:16:46.676Z,24.56
2017-05-24T16:19:14.224Z,24.70
2017-05-24T16:21:41.945Z,24.85
2017-05-24T16:24:09.490Z,24.46
2017-05-24T16:26:37.047Z,24.12
2017-05-24T16:29:04.733Z,23.83
2017-05-24T16:31:32.256Z,23.82
2017-05-24T16:33:59.798Z,23.75
2017-05-24T16:36:27.540Z,23.61
2017-05-24T16:38:55.085Z,23.57
2017-05-24T16:41:22.658Z,23.51
2017-05-24T16:43:50.380Z,23.47
2017-05-24T16:46:17.916Z,23.32
2017-05-24T16:48:45.551Z,23.25
2017-05-24T16:51:13.524Z,23.24
2017-05-24T16:53:41.057Z,23.26
2017-05-24T16:56:08.598Z,23.32
2017-05-24T16:58:36.157Z,23.26
2017-05-24T17:01:03.712Z,23.40
2017-05-24T17:03:31.411Z,23.59
2017-05-24T17:05:58.957Z,23.88
2017-05-24T17:08:26.513Z,23.92
2017-05-24T17:10:54.399Z,24.09
2017-05-24T17:13:22.001Z,23.95
2017-05-24T17:15:49.632Z,23.84
2017-05-24T17:18:17.210Z,23.70
2017-05-24T17:20:45.680Z,23.70
2017-05-24T17:23:13.366Z,23.67
2017-05-24T17:25:40.916Z,23.67
2017-05-24T17:28:08.441Z,23.62
2017-05-24T17:30:36.044Z,23.49
2017-05-24T17:33:03.587Z,23.72
2017-05-24T17:35:31.275Z,23.94
2017-05-24T17:37:58.820Z,24.03
2017-05-24T17:40:26.358Z,24.24
2017-05-24T17:42:54.064Z,24.18
2017-05-24T17:45:21.611Z,24.05
2017-05-24T17:47:49.143Z,23.82
2017-05-24T17:50:16.728Z,23.74
2017-05-24T17:52:44.253Z,23.86
2017-05-24T17:55:11.960Z,23.69
2017-05-24T17:57:39.483Z,23.44
2017-05-24T18:00:07.083Z,23.36
2017-05-24T18:02:34.663Z,23.39
2017-05-24T18:05:02.285Z,23.23
2017-05-24T18:07:30.365Z,23.11
2017-05-24T18:09:57.932Z,23.09
2017-05-24T18:12:25.477Z,23.14
2017-05-24T18:14:53.061Z,23.02
2017-05-24T18:17:20.616Z,23.03
2017-05-24T18:19:48.314Z,23.02
2017-05-24T18:22:15.843Z,22.98
2017-05-24T18:24:43.372Z,22.89
2017-05-24T18:27:10.939Z,22.77
2017-05-24T18:29:38.455Z,22.66
2017-05-24T18:32:06.300Z,22.52
2017-05-24T18:34:33.951Z,22.53
2017-05-24T18:37:01.497Z,22.64
2017-05-24T18:39:29.067Z,22.62
2017-05-24T18:41:56.617Z,22.59
2017-05-24T18:44:24.183Z,22.52
2017-05-24T18:46:51.720Z,22.50
2017-05-24T18:49:19.524Z,22.42
2017-05-24T18:51:47.134Z,22.31
2017-05-24T18:54:14.904Z,22.33
2017-05-24T18:56:42.496Z,22.33
2017-05-24T18:59:10.051Z,22.25
2017-05-24T19:01:37.646Z,22.15
2017-05-24T19:04:05.605Z,22.18
2017-05-24T19:06:33.140Z,22.13
2017-05-24T19:09:00.693Z,22.10
2017-05-24T19:11:28.607Z,22.08
2017-05-24T19:13:56.176Z,22.11
2017-05-24T19:16:23.708Z,22.07
2017-05-24T19:18:51.451Z,22.05
2017-05-24T19:21:18.988Z,22.08
2017-05-24T19:23:46.526Z,22.09
2017-05-24T19:26:14.105Z,22.03
2017-05-24T19:28:41.724Z,21.96
2017-05-24T19:31:09.449Z,21.94
2017-05-24T19:33:37.003Z,21.80
2017-05-24T19:36:04.552Z,21.78
2017-05-24T19:38:32.244Z,21.76
2017-05-24T19:40:59.783Z,21.79
2017-05-24T19:43:27.375Z,21.74
2017-05-24T19:45:55.098Z,21.68
2017-05-24T19:48:22.637Z,21.66
2017-05-24T19:50:50.416Z,21.69
2017-05-24T19:53:17.984Z,21.64
2017-05-24T19:55:45.538Z,21.60
2017-05-24T19:58:13.276Z,21.53
2017-05-24T20:00:40.816Z,21.44
2017-05-24T20:03:08.376Z,21.43
2017-05-24T20:05:35.942Z,21.38
2017-05-24T20:08:03.500Z,21.29
2017-05-24T20:10:31.184Z,21.35
2017-05-24T20:12:58.734Z,21.30
2017-05-24T20:15:26.273Z,21.26
2017-05-24T20:17:53.839Z,21.19
2017-05-24T20:20:21.366Z,21.13
2017-05-24T20:22:49.260Z,21.06
2017-05-24T20:25:16.828Z,20.95
2017-05-24T20:27:44.444Z,21.01
2017-05-24T20:30:12.007Z,20.90
2017-05-24T20:32:39.536Z,20.84
2017-05-24T20:35:07.272Z,20.88
2017-05-24T20:37:34.813Z,20.85
2017-05-24T20:40:02.342Z,20.72
2017-05-24T20:42:29.936Z,20.79
2017-05-24T20:44:57.521Z,20.66
2017-05-24T20:47:25.207Z,20.69
2017-05-24T20:49:52.803Z,20.61
2017-05-24T20:52:20.363Z,20.44
2017-05-24T20:54:48.198Z,20.41
2017-05-24T20:57:15.814Z,20.38
2017-05-24T20:59:43.406Z,20.38
2017-05-24T21:02:11.359Z,20.17
2017-05-24T21:04:38.879Z,20.25
2017-05-24T21:07:06.434Z,20.29
2017-05-24T21:09:34.025Z,20.21
2017-05-24T21:12:01.551Z,20.14
2017-05-24T21:14:29.123Z,20.23
2017-05-24T21:16:56.659Z,20.24
2017-05-24T21:19:24.243Z,20.23
2017-05-24T21:21:51.770Z,20.27
2017-05-24T21:24:19.457Z,20.18
2017-05-24T21:26:46.988Z,20.12
2017-05-24T21:29:14.551Z,20.15
2017-05-24T21:31:42.252Z,20.13
2017-05-24T21:34:09.787Z,20.12
2017-05-24T21:36:37.321Z,20.15
2017-05-24T21:39:04.887Z,20.06
2017-05-24T21:41:32.428Z,19.94
2017-05-24T21:44:00.131Z,19.83
2017-05-24T21:46:27.699Z,19.69
2017-05-24T21:48:55.244Z,19.82
2017-05-24T21:51:22.824Z,19.74
2017-05-24T21:53:50.346Z,19.67
2017-05-24T21:56:18.023Z,19.68
2017-05-24T21:58:45.548Z,19.59
2017-05-24T22:01:13.071Z,19.61
2017-05-24T22:03:40.814Z,19.51
2017-05-24T22:06:08.364Z,19.46
2017-05-24T22:08:35.914Z,19.35
2017-05-24T22:11:03.742Z,19.39
2017-05-24T22:13:31.295Z,19.38
2017-05-24T22:15:58.875Z,19.31
2017-05-24T22:18:26.616Z,19.26
2017-05-24T22:20:54.227Z,19.21
2017-05-24T22:23:21.778Z,19.16
2017-05-24T22:25:49.331Z,19.08
2017-05-24T22:28:16.864Z,18.98
2017-05-24T22:30:44.543Z,18.90
2017-05-24T22:33:12.072Z,18.81
2017-05-24T22:35:40.345Z,18.78
2017-05-24T22:38:08.025Z,18.61
2017-05-24T22:40:35.562Z,18.56
2017-05-24T22:43:03.086Z,18.56
2017-05-24T22:45:30.646Z,18.58
2017-05-24T22:47:58.191Z,18.53
2017-05-24T22:50:25.768Z,18.52
2017-05-24T22:52:53.300Z,18.46
2017-05-24T22:55:21.027Z,18.43
2017-05-24T22:57:48.616Z,18.35
2017-05-24T23:00:16.131Z,18.36
2017-05-24T23:02:43.999Z,18.31
2017-05-24T23:05:11.571Z,18.21
2017-05-24T23:07:39.155Z,18.27
2017-05-24T23:10:06.771Z,18.10
2017-05-24T23:12:34.296Z,18.12
2017-05-24T23:15:01.916Z,18.02
2017-05-24T23:17:29.522Z,17.92
2017-05-24T23:19:57.065Z,18.11
2017-05-24T23:22:24.821Z,17.82
2017-05-24T23:24:52.361Z,17.77
2017-05-24T23:27:19.923Z,17.69
2017-05-24T23:29:47.835Z,17.74
2017-05-24T23:32:15.371Z,17.68
2017-05-24T23:34:42.915Z,17.60
2017-05-24T23:37:10.479Z,17.55
2017-05-24T23:39:38.009Z,17.54
2017-05-24T23:42:05.688Z,17.49
2017-05-24T23:44:33.219Z,17.28
2017-05-24T23:47:00.776Z,17.34
2017-05-24T23:49:28.453Z,17.39
2017-05-24T23:51:56.002Z,17.35
2017-05-24T23:54:23.557Z,17.28
2017-05-24T23:56:51.135Z,17.28
2017-05-24T23:59:18.719Z,17.10
